Time;durP1;ratioP1;P1;durP2;ratioP2;P2;SDS_P1;SDS_P2;PMS_P1;PMS_P2;Temp;Humidity;BMP_temperature;BMP_pressure;BME280_temperature;BME280_humidity;BME280_pressure;Samples;Min_cycle;Max_cycle;Signal;HPM_P1;HPM_P2
2021/04/29 00:01:44;;;;;;;1.30;1.30;;;12.60;98.00;;;;;;5031324;28;20650;-72
2021/04/29 00:04:11;;;;;;;1.93;1.57;;;12.40;98.00;;;;;;5034178;28;20805;-71
2021/04/29 00:06:38;;;;;;;2.23;1.83;;;12.20;98.00;;;;;;5031121;28;20460;-71
2021/04/29 00:09:07;;;;;;;1.23;1.13;;;12.20;98.00;;;;;;5033965;28;20465;-71
2021/04/29 00:11:34;;;;;;;1.60;1.40;;;12.30;98.00;;;;;;5031271;28;20504;-71
2021/04/29 00:14:01;;;;;;;2.80;1.90;;;12.20;98.00;;;;;;5032614;28;20495;-72
2021/04/29 00:16:29;;;;;;;2.67;1.80;;;12.10;98.00;;;;;;5030903;28;20818;-71
2021/04/29 00:18:55;;;;;;;1.30;1.00;;;12.00;98.00;;;;;;5033612;28;20510;-70
2021/04/29 00:21:22;;;;;;;1.73;1.20;;;12.00;98.00;;;;;;5032816;28;20570;-71
2021/04/29 00:23:49;;;;;;;1.30;1.10;;;12.00;98.00;;;;;;5032611;28;20464;-71
2021/04/29 00:26:16;;;;;;;1.77;1.30;;;12.10;98.00;;;;;;5033538;28;20523;-71
2021/04/29 00:28:42;;;;;;;1.77;1.50;;;12.10;98.00;;;;;;5030547;28;20470;-70
2021/04/29 00:31:10;;;;;;;1.73;1.67;;;12.10;98.00;;;;;;5033299;28;20474;-70
2021/04/29 00:33:37;;;;;;;1.63;1.40;;;12.10;98.00;;;;;;5030889;28;20468;-71
2021/04/29 00:36:04;;;;;;;1.57;1.33;;;12.20;98.00;;;;;;5033514;28;20491;-71
2021/04/29 00:38:31;;;;;;;1.20;1.00;;;12.30;98.00;;;;;;5030681;28;20873;-71
2021/04/29 00:41:01;;;;;;;1.50;1.17;;;12.30;98.00;;;;;;5033487;28;20817;-71
2021/04/29 00:43:28;;;;;;;1.40;1.30;;;12.20;98.00;;;;;;5030651;28;20578;-71
2021/04/29 00:45:55;;;;;;;1.77;1.30;;;12.30;98.00;;;;;;5033324;28;20504;-70
2021/04/29 00:48:21;;;;;;;1.20;1.03;;;12.30;98.00;;;;;;5030754;28;20845;-71
2021/04/29 00:50:49;;;;;;;1.50;1.40;;;12.30;98.00;;;;;;5032831;28;20462;-71
2021/04/29 00:53:16;;;;;;;1.80;1.33;;;12.40;98.00;;;;;;5028927;28;20570;-71
2021/04/29 00:55:43;;;;;;;1.90;1.63;;;12.40;98.00;;;;;;5032603;28;20502;-71
2021/04/29 00:58:10;;;;;;;1.57;1.37;;;12.50;98.00;;;;;;5030406;28;20462;-71
2021/04/29 01:00:39;;;;;;;1.50;1.20;;;12.50;98.00;;;;;;5032980;28;20462;-70
2021/04/29 01:03:12;;;;;;;1.63;1.13;;;12.50;98.00;;;;;;5029793;28;20489;-70
2021/04/29 01:05:45;;;;;;;2.80;1.87;;;12.50;98.00;;;;;;5031997;28;20461;-71
2021/04/29 01:08:14;;;;;;;1.20;1.00;;;12.50;98.00;;;;;;5029428;28;20488;-70
2021/04/29 01:10:47;;;;;;;1.33;1.30;;;12.60;98.00;;;;;;5031851;28;20455;-71
2021/04/29 01:13:17;;;;;;;1.40;1.20;;;12.60;98.00;;;;;;5029727;28;20460;-71
2021/04/29 01:15:48;;;;;;;1.53;1.20;;;12.50;98.00;;;;;;5032666;28;20462;-70
2021/04/29 01:18:16;;;;;;;1.57;1.20;;;12.40;98.00;;;;;;5030252;28;20473;-71
2021/04/29 01:20:48;;;;;;;1.80;1.33;;;12.20;98.00;;;;;;5032711;28;20849;-71
2021/04/29 01:23:26;;;;;;;1.73;1.20;;;12.20;98.00;;;;;;5029916;28;20481;-71
2021/04/29 01:25:58;;;;;;;1.83;1.20;;;12.30;98.00;;;;;;5032714;28;20492;-72
2021/04/29 01:28:26;;;;;;;1.30;1.30;;;12.40;98.00;;;;;;5028496;28;20782;-71
2021/04/29 01:30:54;;;;;;;1.20;1.10;;;12.50;98.00;;;;;;5032360;28;20483;-70
2021/04/29 01:33:21;;;;;;;2.23;1.57;;;12.60;98.00;;;;;;5028444;28;20944;-71
2021/04/29 01:35:49;;;;;;;1.70;1.67;;;12.40;98.00;;;;;;5032331;28;20469;-71
2021/04/29 01:38:16;;;;;;;4.90;1.67;;;12.40;98.00;;;;;;5028531;28;21167;-70
2021/04/29 01:40:43;;;;;;;1.60;1.50;;;12.40;98.00;;;;;;5032278;28;20507;-71
2021/04/29 01:43:10;;;;;;;1.30;1.20;;;12.30;98.00;;;;;;5029380;28;20496;-70
2021/04/29 01:45:41;;;;;;;1.60;1.37;;;12.10;98.00;;;;;;5032174;28;20462;-71
2021/04/29 01:48:08;;;;;;;2.17;1.57;;;12.00;98.00;;;;;;5027889;28;21015;-70
2021/04/29 01:50:36;;;;;;;1.67;1.30;;;12.00;98.00;;;;;;5031876;28;21037;-70
2021/04/29 01:53:04;;;;;;;1.70;1.10;;;11.90;98.00;;;;;;5029241;28;20469;-72
2021/04/29 01:55:34;;;;;;;1.30;1.17;;;11.90;98.00;;;;;;5031826;28;20460;-70
2021/04/29 01:58:01;;;;;;;1.50;1.30;;;12.00;98.00;;;;;;5027759;28;20461;-70
2021/04/29 02:00:28;;;;;;;1.40;1.40;;;12.00;98.00;;;;;;5032203;28;20557;-71
2021/04/29 02:02:55;;;;;;;1.40;1.30;;;12.10;98.00;;;;;;5029297;28;20523;-71
2021/04/29 02:05:21;;;;;;;1.50;1.20;;;12.20;98.00;;;;;;5031055;28;20489;-71
2021/04/29 02:07:48;;;;;;;1.50;1.40;;;12.30;98.00;;;;;;5028991;28;20459;-71
2021/04/29 02:10:17;;;;;;;2.43;1.53;;;12.30;98.00;;;;;;5031821;28;20823;-71
2021/04/29 02:12:48;;;;;;;2.73;1.40;;;12.40;98.00;;;;;;5027714;28;20553;-71
2021/04/29 02:15:16;;;;;;;1.20;1.00;;;12.50;98.00;;;;;;5031792;28;20488;-70
2021/04/29 02:17:47;;;;;;;1.80;1.37;;;12.50;98.00;;;;;;5028699;28;20469;-71
2021/04/29 02:20:16;;;;;;;1.70;1.33;;;12.50;98.00;;;;;;5031576;28;20457;-71
2021/04/29 02:22:44;;;;;;;2.70;1.60;;;12.60;98.00;;;;;;5028776;28;20502;-71
2021/04/29 02:25:14;;;;;;;2.07;1.43;;;12.60;98.00;;;;;;5031491;28;20469;-71
2021/04/29 02:27:41;;;;;;;1.20;1.00;;;12.60;98.00;;;;;;5027395;28;20464;-71
2021/04/29 02:30:10;;;;;;;1.40;1.20;;;12.60;98.00;;;;;;5031328;28;20826;-71
2021/04/29 02:32:38;;;;;;;1.20;1.00;;;12.50;98.00;;;;;;5029089;28;20499;-71
2021/04/29 02:35:06;;;;;;;5.33;2.17;;;12.60;98.00;;;;;;5031542;28;20465;-71
2021/04/29 02:37:34;;;;;;;1.70;1.40;;;12.50;98.00;;;;;;5028543;28;20462;-70
2021/04/29 02:40:03;;;;;;;1.50;1.13;;;12.50;98.00;;;;;;5031747;28;20468;-72
2021/04/29 02:42:29;;;;;;;1.30;1.10;;;12.40;98.00;;;;;;5028870;28;20485;-71
2021/04/29 02:44:56;;;;;;;2.00;1.60;;;12.40;98.00;;;;;;5031536;28;20474;-70
2021/04/29 02:47:23;;;;;;;1.20;1.10;;;12.40;98.00;;;;;;5028691;28;20489;-71
2021/04/29 02:49:50;;;;;;;1.50;1.10;;;12.50;98.00;;;;;;5031462;28;20462;-71
2021/04/29 02:52:17;;;;;;;1.20;1.00;;;12.70;98.00;;;;;;5028504;28;20454;-71
2021/04/29 02:54:45;;;;;;;1.20;1.03;;;12.80;98.00;;;;;;5031322;28;20462;-71
2021/04/29 02:57:20;;;;;;;1.30;1.13;;;12.80;98.00;;;;;;5028128;28;20531;-71
2021/04/29 02:59:47;;;;;;;1.30;1.13;;;12.90;98.00;;;;;;5031307;28;20816;-71
2021/04/29 03:02:14;;;;;;;1.97;1.10;;;12.90;98.00;;;;;;5028888;28;21015;-71
2021/04/29 03:04:41;;;;;;;1.20;0.97;;;12.90;98.00;;;;;;5031156;28;20551;-70
2021/04/29 03:07:07;;;;;;;1.30;1.10;;;12.90;98.00;;;;;;5028376;28;20497;-71
2021/04/29 03:09:34;;;;;;;2.03;1.93;;;12.90;98.00;;;;;;5030991;28;20550;-71
2021/04/29 03:12:01;;;;;;;1.63;1.10;;;13.00;98.00;;;;;;5028268;28;20539;-70
2021/04/29 03:14:27;;;;;;;1.20;1.00;;;12.90;98.00;;;;;;5031370;28;20456;-71
2021/04/29 03:16:54;;;;;;;1.20;1.00;;;12.90;98.00;;;;;;5030586;28;20492;-71
2021/04/29 03:19:21;;;;;;;1.20;1.00;;;12.90;98.00;;;;;;5033828;28;20456;-70
2021/04/29 03:21:48;;;;;;;1.20;0.90;;;12.80;98.00;;;;;;5032194;28;20488;-71
2021/04/29 03:24:14;;;;;;;2.40;1.30;;;12.80;98.00;;;;;;5034737;28;20459;-71
2021/04/29 03:26:41;;;;;;;1.20;0.90;;;12.70;98.00;;;;;;5033007;28;20451;-70
2021/04/29 03:29:08;;;;;;;1.43;1.00;;;12.70;98.00;;;;;;5033304;28;20511;-71
2021/04/29 03:31:35;;;;;;;1.20;0.90;;;12.60;98.00;;;;;;5034668;28;20507;-71
2021/04/29 03:34:01;;;;;;;1.20;1.03;;;12.60;98.00;;;;;;5031866;28;20484;-72
2021/04/29 03:36:28;;;;;;;1.40;1.20;;;12.50;98.00;;;;;;5034604;28;20464;-71
2021/04/29 03:38:54;;;;;;;1.60;1.47;;;12.40;98.00;;;;;;5031776;28;20469;-72
2021/04/29 03:41:21;;;;;;;1.63;1.20;;;12.30;98.00;;;;;;5034484;28;20467;-71
2021/04/29 03:43:48;;;;;;;1.30;1.10;;;12.30;98.00;;;;;;5031387;28;20494;-71
2021/04/29 03:46:15;;;;;;;1.20;1.00;;;12.20;98.00;;;;;;5034455;28;20455;-71
2021/04/29 03:48:42;;;;;;;1.20;1.00;;;12.20;98.00;;;;;;5031222;28;20975;-71
2021/04/29 03:51:08;;;;;;;1.30;1.20;;;12.10;98.00;;;;;;5034010;28;20502;-71
2021/04/29 03:53:35;;;;;;;1.20;1.00;;;12.10;98.00;;;;;;5031584;28;20967;-71
2021/04/29 03:56:02;;;;;;;1.50;1.00;;;12.10;98.00;;;;;;5033917;28;20457;-71
2021/04/29 03:58:29;;;;;;;1.53;1.13;;;12.10;98.00;;;;;;5030142;28;20836;-71
2021/04/29 04:00:55;;;;;;;1.20;0.90;;;12.00;98.00;;;;;;5034369;28;20483;-72
2021/04/29 04:03:22;;;;;;;1.20;1.00;;;12.00;98.00;;;;;;5031374;28;20486;-72
2021/04/29 04:05:49;;;;;;;1.20;1.00;;;12.00;98.00;;;;;;5034130;28;20456;-71
2021/04/29 04:08:16;;;;;;;1.20;0.93;;;12.00;98.00;;;;;;5031128;28;20463;-71
2021/04/29 04:10:43;;;;;;;1.20;0.90;;;12.10;98.00;;;;;;5034004;28;20483;-72
2021/04/29 04:13:17;;;;;;;1.20;0.90;;;12.10;98.00;;;;;;5031288;28;20491;-71
2021/04/29 04:15:44;;;;;;;1.20;1.10;;;12.10;98.00;;;;;;5033855;28;20472;-71
2021/04/29 04:18:10;;;;;;;1.20;0.90;;;12.10;98.00;;;;;;5030864;28;20458;-71
2021/04/29 04:20:38;;;;;;;1.20;0.90;;;12.10;98.00;;;;;;5032469;28;20477;-71
2021/04/29 04:23:04;;;;;;;1.20;0.90;;;12.20;98.00;;;;;;5031095;28;20491;-71
2021/04/29 04:25:31;;;;;;;1.20;1.03;;;12.20;98.00;;;;;;5033663;28;20906;-71
2021/04/29 04:27:57;;;;;;;1.20;0.90;;;12.10;98.00;;;;;;5029580;28;20468;-72
2021/04/29 04:30:25;;;;;;;1.50;1.30;;;12.10;98.00;;;;;;5033447;28;20472;-70
2021/04/29 04:32:52;;;;;;;1.20;0.90;;;12.00;98.00;;;;;;5030748;28;20463;-71
2021/04/29 04:35:20;;;;;;;1.20;0.90;;;11.90;98.00;;;;;;5033374;28;20518;-71
2021/04/29 04:37:47;;;;;;;1.77;1.60;;;12.00;98.00;;;;;;5030963;28;21004;-70
2021/04/29 04:40:15;;;;;;;1.20;1.00;;;12.00;98.00;;;;;;5033752;28;20576;-71
2021/04/29 04:42:42;;;;;;;1.23;1.00;;;11.90;98.00;;;;;;5030932;28;20483;-70
2021/04/29 04:45:11;;;;;;;1.20;0.90;;;12.00;98.00;;;;;;5033434;28;20463;-71
2021/04/29 04:47:38;;;;;;;1.70;1.10;;;12.10;98.00;;;;;;5030629;28;20496;-71
2021/04/29 04:50:06;;;;;;;1.20;1.03;;;12.20;98.00;;;;;;5032068;28;20491;-71
2021/04/29 04:52:33;;;;;;;1.20;1.00;;;12.30;98.00;;;;;;5029208;28;20454;-71
2021/04/29 04:55:00;;;;;;;1.20;1.00;;;12.20;98.00;;;;;;5033196;28;20459;-71
2021/04/29 04:57:27;;;;;;;1.20;0.90;;;12.20;98.00;;;;;;5030341;28;20832;-71
2021/04/29 04:59:53;;;;;;;1.20;0.90;;;12.20;98.00;;;;;;5033053;28;20969;-71
2021/04/29 05:02:20;;;;;;;1.20;0.90;;;12.10;98.00;;;;;;5029735;28;20489;-71
2021/04/29 05:04:46;;;;;;;1.20;1.10;;;12.00;98.00;;;;;;5032904;28;20467;-71
2021/04/29 05:07:13;;;;;;;1.20;1.00;;;11.90;98.00;;;;;;5029842;28;20464;-72
2021/04/29 05:09:42;;;;;;;1.20;1.10;;;11.90;98.00;;;;;;5032538;28;20467;-70
2021/04/29 05:12:11;;;;;;;1.40;1.10;;;11.90;98.00;;;;;;5030535;28;20454;-71
2021/04/29 05:14:38;;;;;;;1.30;1.17;;;11.90;98.00;;;;;;5032955;28;20529;-70
2021/04/29 05:17:04;;;;;;;1.20;1.00;;;11.80;98.00;;;;;;5029946;28;20479;-70
2021/04/29 05:19:31;;;;;;;1.80;1.20;;;12.00;98.00;;;;;;5032756;28;20498;-71
2021/04/29 05:22:03;;;;;;;2.13;1.50;;;12.00;98.00;;;;;;5030377;28;20514;-72
2021/04/29 05:24:30;;;;;;;1.20;0.90;;;12.10;98.00;;;;;;5031391;28;20939;-70
2021/04/29 05:26:57;;;;;;;1.20;1.00;;;12.10;98.00;;;;;;5030143;28;20454;-70
2021/04/29 05:29:25;;;;;;;1.20;1.00;;;12.20;98.00;;;;;;5031023;28;20464;-71
2021/04/29 05:31:54;;;;;;;1.20;1.03;;;12.40;98.00;;;;;;5031883;28;20807;-71
2021/04/29 05:34:20;;;;;;;1.20;1.10;;;12.40;98.00;;;;;;5031169;28;20461;-71
2021/04/29 05:36:47;;;;;;;1.20;0.90;;;12.50;98.00;;;;;;5032533;28;20493;-71
2021/04/29 05:39:13;;;;;;;1.20;1.00;;;12.50;98.00;;;;;;5029535;28;20874;-70
2021/04/29 05:41:40;;;;;;;1.20;1.00;;;12.50;98.00;;;;;;5032173;28;20851;-70
2021/04/29 05:44:07;;;;;;;1.50;1.00;;;12.50;98.00;;;;;;5029339;28;20518;-70
2021/04/29 05:46:34;;;;;;;1.20;1.00;;;12.60;98.00;;;;;;5032052;28;20465;-70
2021/04/29 05:49:01;;;;;;;1.40;1.17;;;12.60;98.00;;;;;;5029340;28;20460;-71
2021/04/29 05:51:28;;;;;;;1.20;0.90;;;12.80;98.00;;;;;;5030782;28;20460;-71
2021/04/29 05:53:55;;;;;;;1.20;0.90;;;12.70;98.00;;;;;;5027779;28;20523;-70
2021/04/29 05:56:21;;;;;;;1.20;0.90;;;12.70;98.00;;;;;;5031837;28;20469;-70
2021/04/29 05:58:48;;;;;;;1.20;0.90;;;12.70;98.00;;;;;;5029077;28;20461;-70
2021/04/29 06:01:15;;;;;;;1.20;0.90;;;12.70;98.00;;;;;;5031888;28;20501;-71
2021/04/29 06:03:42;;;;;;;1.20;0.90;;;12.70;98.00;;;;;;5029453;28;21087;-70
2021/04/29 06:06:10;;;;;;;1.30;1.20;;;12.80;98.00;;;;;;5032284;28;20461;-69
2021/04/29 06:08:36;;;;;;;1.80;1.17;;;12.80;98.00;;;;;;5029104;28;20508;-69
2021/04/29 06:11:03;;;;;;;1.30;1.07;;;12.90;98.00;;;;;;5031778;28;20836;-69
2021/04/29 06:13:29;;;;;;;1.40;1.30;;;13.00;98.00;;;;;;5029015;28;20456;-70
2021/04/29 06:15:56;;;;;;;1.20;0.90;;;13.10;98.00;;;;;;5032087;28;20513;-69
2021/04/29 06:18:23;;;;;;;1.40;1.30;;;13.10;98.00;;;;;;5028791;28;20483;-69
2021/04/29 06:20:50;;;;;;;1.20;1.00;;;13.10;98.00;;;;;;5030334;28;20449;-69
2021/04/29 06:23:17;;;;;;;2.27;1.30;;;13.00;98.00;;;;;;5029128;28;20921;-68
2021/04/29 06:25:44;;;;;;;1.20;1.00;;;13.10;98.00;;;;;;5031537;28;20458;-69
2021/04/29 06:28:11;;;;;;;1.20;1.00;;;13.10;98.00;;;;;;5028462;28;20464;-69
2021/04/29 06:30:40;;;;;;;1.30;1.10;;;13.00;98.00;;;;;;5031464;28;20461;-68
2021/04/29 06:33:07;;;;;;;1.20;0.90;;;13.10;98.00;;;;;;5028749;28;20461;-70
2021/04/29 06:35:33;;;;;;;1.20;0.90;;;13.10;98.00;;;;;;5031438;28;20796;-69
2021/04/29 06:38:02;;;;;;;1.20;1.00;;;13.10;98.00;;;;;;5028373;28;20472;-70
2021/04/29 06:40:29;;;;;;;3.30;2.60;;;13.10;98.00;;;;;;5031624;28;20861;-70
2021/04/29 06:42:55;;;;;;;1.50;1.03;;;13.10;98.00;;;;;;5029050;28;20811;-71
2021/04/29 06:45:22;;;;;;;1.20;0.90;;;13.10;98.00;;;;;;5031521;28;20531;-69
2021/04/29 06:47:49;;;;;;;1.40;1.10;;;13.10;98.00;;;;;;5028995;28;20455;-70
2021/04/29 06:50:16;;;;;;;1.20;0.97;;;13.20;98.00;;;;;;5031459;28;20517;-68
2021/04/29 06:52:43;;;;;;;2.07;1.20;;;13.20;98.00;;;;;;5032176;28;20463;-69
2021/04/29 06:55:12;;;;;;;1.20;1.10;;;13.20;98.00;;;;;;5035419;28;20834;-70
2021/04/29 06:57:39;;;;;;;1.50;1.20;;;13.30;98.00;;;;;;5032715;28;20479;-70
2021/04/29 07:00:06;;;;;;;1.30;1.10;;;13.40;98.00;;;;;;5035147;28;20550;-70
2021/04/29 07:02:33;;;;;;;1.20;1.10;;;13.60;98.00;;;;;;5032497;28;20551;-68
2021/04/29 07:05:02;;;;;;;1.20;1.00;;;13.70;98.00;;;;;;5035221;28;20465;-69
2021/04/29 07:07:28;;;;;;;1.20;1.00;;;13.70;98.00;;;;;;5031018;28;20454;-69
2021/04/29 07:09:55;;;;;;;3.97;1.40;;;13.70;98.00;;;;;;5035145;28;20480;-70
2021/04/29 07:12:22;;;;;;;1.37;1.00;;;13.60;98.00;;;;;;5032198;28;21070;-70
2021/04/29 07:14:49;;;;;;;1.40;1.27;;;13.60;98.00;;;;;;5034892;28;20472;-70
2021/04/29 07:17:15;;;;;;;1.20;0.90;;;13.70;98.00;;;;;;5031564;28;20458;-69
2021/04/29 07:19:42;;;;;;;2.30;1.37;;;13.70;98.00;;;;;;5034327;28;20459;-69
2021/04/29 07:22:09;;;;;;;1.73;1.30;;;13.80;98.00;;;;;;5029755;28;20490;-70
2021/04/29 07:24:35;;;;;;;1.20;1.00;;;13.90;98.00;;;;;;5033477;28;20951;-70
2021/04/29 07:27:02;;;;;;;1.20;1.00;;;14.00;98.00;;;;;;5034662;28;20905;-70
2021/04/29 07:29:29;;;;;;;1.40;1.10;;;14.10;98.00;;;;;;5031535;28;20549;-67
2021/04/29 07:31:56;;;;;;;1.20;0.90;;;14.10;98.00;;;;;;5034454;28;20469;-68
2021/04/29 07:34:23;;;;;;;2.07;1.30;;;14.10;98.00;;;;;;5030720;28;20456;-69
2021/04/29 07:36:50;;;;;;;1.20;1.00;;;14.20;98.00;;;;;;5034101;28;20467;-67
2021/04/29 07:39:17;;;;;;;1.27;1.03;;;14.30;98.00;;;;;;5030032;28;20839;-67
2021/04/29 07:41:43;;;;;;;1.20;1.00;;;14.40;98.00;;;;;;5032731;28;20960;-69
2021/04/29 07:44:10;;;;;;;1.30;1.00;;;14.70;98.00;;;;;;5030434;28;20486;-69
2021/04/29 07:46:37;;;;;;;1.20;0.90;;;15.00;98.00;;;;;;5033940;28;20465;-70
2021/04/29 07:49:04;;;;;;;1.20;1.00;;;15.20;98.00;;;;;;5031392;28;20458;-69
2021/04/29 07:51:30;;;;;;;1.40;1.20;;;15.10;96.60;;;;;;5033738;28;20461;-69
2021/04/29 07:53:57;;;;;;;1.50;1.20;;;15.20;97.90;;;;;;5030596;28;20474;-70
2021/04/29 07:56:23;;;;;;;1.23;1.20;;;15.30;98.00;;;;;;5033513;28;20454;-70
2021/04/29 07:58:50;;;;;;;1.20;0.90;;;15.60;96.70;;;;;;5031113;28;20520;-69
2021/04/29 08:01:16;;;;;;;1.30;1.17;;;15.80;95.40;;;;;;5033571;28;21184;-70
2021/04/29 08:03:44;;;;;;;1.80;1.27;;;15.80;95.20;;;;;;5030638;28;20487;-70
2021/04/29 08:06:11;;;;;;;1.20;1.10;;;15.90;96.20;;;;;;5033576;28;20588;-71
2021/04/29 08:08:38;;;;;;;1.63;1.40;;;15.80;95.30;;;;;;5030550;28;20454;-71
2021/04/29 08:11:05;;;;;;;1.30;1.10;;;15.80;94.70;;;;;;5033678;28;20945;-71
2021/04/29 08:13:31;;;;;;;1.60;1.40;;;15.90;95.30;;;;;;5029653;28;20462;-72
2021/04/29 08:15:59;;;;;;;1.60;1.30;;;16.00;94.80;;;;;;5033111;28;20462;-71
2021/04/29 08:18:26;;;;;;;1.40;1.20;;;16.00;94.20;;;;;;5030341;28;20466;-71
2021/04/29 08:20:54;;;;;;;1.83;1.33;;;15.80;92.30;;;;;;5046298;28;20471;-72
2021/04/29 08:23:21;;;;;;;1.30;1.20;;;15.60;93.00;;;;;;5049626;28;20485;-71
2021/04/29 08:25:48;;;;;;;1.50;1.10;;;15.70;93.50;;;;;;5052871;28;20956;-71
2021/04/29 08:28:14;;;;;;;1.80;1.30;;;15.50;92.00;;;;;;5048573;28;20516;-71
2021/04/29 08:30:40;;;;;;;1.80;1.40;;;15.30;93.10;;;;;;5052926;28;20493;-72
2021/04/29 08:33:07;;;;;;;1.30;1.20;;;15.20;96.00;;;;;;5050076;28;20457;-70
2021/04/29 08:35:35;;;;;;;1.90;1.80;;;15.20;95.30;;;;;;5051625;28;20446;-71
2021/04/29 08:38:03;;;;;;;1.40;1.33;;;15.20;93.20;;;;;;5049794;28;20461;-71
2021/04/29 08:40:30;;;;;;;1.20;1.00;;;15.20;94.90;;;;;;5052761;28;20508;-70
2021/04/29 08:42:56;;;;;;;2.03;1.53;;;15.30;93.90;;;;;;5049732;28;20871;-70
2021/04/29 08:45:23;;;;;;;1.50;1.40;;;15.60;93.40;;;;;;5052465;28;20454;-70
2021/04/29 08:47:51;;;;;;;2.13;1.30;;;15.90;94.30;;;;;;5050235;28;20464;-71
2021/04/29 08:50:18;;;;;;;1.20;1.00;;;16.20;92.70;;;;;;5052758;28;21245;-70
2021/04/29 08:52:45;;;;;;;1.87;1.50;;;16.30;91.10;;;;;;5049643;28;20457;-70
2021/04/29 08:55:17;;;;;;;2.00;1.30;;;16.40;91.40;;;;;;5052666;28;20485;-71
2021/04/29 08:57:44;;;;;;;1.40;1.30;;;16.30;90.90;;;;;;5049845;28;20881;-70
2021/04/29 09:00:12;;;;;;;3.40;1.70;;;16.20;91.40;;;;;;5052581;28;20453;-68
2021/04/29 09:02:39;;;;;;;1.50;1.13;;;16.00;91.50;;;;;;5049758;28;20485;-70
2021/04/29 09:05:15;;;;;;;1.70;1.30;;;15.90;90.60;;;;;;5051755;28;21096;-71
2021/04/29 09:07:55;;;;;;;1.40;1.20;;;15.80;91.10;;;;;;5048751;28;20469;-71
2021/04/29 09:10:25;;;;;;;1.83;1.30;;;15.70;91.10;;;;;;4995121;28;20452;-70
2021/04/29 09:12:51;;;;;;;1.37;1.10;;;15.80;91.80;;;;;;5009717;28;20474;-71
2021/04/29 09:15:23;;;;;;;2.00;1.87;;;15.90;93.30;;;;;;5028019;28;20470;-71
2021/04/29 09:18:06;;;;;;;1.30;1.07;;;16.00;92.60;;;;;;5029370;28;20552;-70
2021/04/29 09:20:33;;;;;;;1.50;1.50;;;16.20;91.00;;;;;;5029511;28;20999;-71
2021/04/29 09:23:03;;;;;;;3.57;1.30;;;16.20;89.90;;;;;;5028821;28;20518;-71
2021/04/29 09:25:32;;;;;;;1.30;1.10;;;16.10;90.30;;;;;;5031921;28;20477;-70
2021/04/29 09:27:59;;;;;;;1.30;1.10;;;16.30;89.20;;;;;;5029059;28;20490;-70
2021/04/29 09:30:28;;;;;;;1.30;1.30;;;16.40;89.80;;;;;;5031797;28;20538;-69
2021/04/29 09:32:58;;;;;;;1.30;1.27;;;16.50;88.20;;;;;;5029399;28;20494;-70
2021/04/29 09:35:28;;;;;;;1.60;1.20;;;16.60;88.80;;;;;;5039137;28;20486;-71
2021/04/29 09:37:59;;;;;;;1.60;1.53;;;16.50;86.40;;;;;;5048603;28;20512;-69
2021/04/29 09:40:29;;;;;;;2.17;1.70;;;16.50;87.10;;;;;;5051814;28;20454;-69
2021/04/29 09:42:58;;;;;;;2.07;1.60;;;16.60;86.40;;;;;;5048542;28;20839;-69
2021/04/29 09:45:28;;;;;;;1.73;1.33;;;16.60;87.40;;;;;;5051395;28;20460;-70
2021/04/29 09:47:59;;;;;;;2.73;1.60;;;16.70;85.40;;;;;;5048770;28;20484;-69
2021/04/29 09:50:29;;;;;;;1.30;1.20;;;16.70;86.30;;;;;;5051337;28;20507;-71
2021/04/29 09:53:01;;;;;;;1.80;1.40;;;16.80;85.80;;;;;;5048456;28;20454;-70
2021/04/29 09:55:29;;;;;;;1.20;1.20;;;16.80;85.60;;;;;;5051105;28;20461;-71
2021/04/29 09:58:08;;;;;;;1.33;1.13;;;16.60;86.00;;;;;;5048726;28;20452;-69
2021/04/29 10:00:35;;;;;;;1.30;1.20;;;16.40;86.10;;;;;;5051026;28;20545;-71
2021/04/29 10:03:02;;;;;;;2.23;2.00;;;16.30;87.80;;;;;;5047791;28;20483;-70
2021/04/29 10:05:32;;;;;;;1.60;1.27;;;16.10;88.40;;;;;;5050899;28;20545;-70
2021/04/29 10:07:58;;;;;;;1.60;1.50;;;16.10;88.40;;;;;;5048532;28;20859;-70
2021/04/29 10:10:25;;;;;;;3.37;1.87;;;16.00;86.60;;;;;;5051185;28;20453;-70
2021/04/29 10:12:55;;;;;;;1.57;1.23;;;15.80;87.50;;;;;;5048497;28;20951;-69
2021/04/29 10:15:23;;;;;;;1.80;1.37;;;15.60;91.20;;;;;;5030755;28;20462;-69
2021/04/29 10:17:50;;;;;;;1.50;1.50;;;15.30;94.80;;;;;;5028882;28;20458;-70
2021/04/29 10:20:17;;;;;;;1.20;1.20;;;14.90;95.90;;;;;;5031332;28;20514;-69
2021/04/29 10:22:44;;;;;;;1.30;1.20;;;14.70;97.10;;;;;;5028464;28;20490;-70
2021/04/29 10:25:11;;;;;;;1.70;1.37;;;14.50;97.70;;;;;;5030482;28;20463;-71
2021/04/29 10:27:44;;;;;;;1.30;1.10;;;14.50;98.00;;;;;;5027979;28;20469;-70
2021/04/29 10:30:13;;;;;;;1.40;1.20;;;14.50;98.00;;;;;;5031164;28;20545;-71
2021/04/29 10:32:41;;;;;;;1.57;1.10;;;14.60;98.00;;;;;;5028372;28;20457;-70
2021/04/29 10:35:28;;;;;;;1.40;1.20;;;15.10;98.00;;;;;;5030877;28;20870;-72
2021/04/29 10:37:56;;;;;;;1.70;1.50;;;15.30;96.20;;;;;;5028680;28;20458;-69
2021/04/29 10:40:35;;;;;;;1.87;1.57;;;15.40;93.60;;;;;;5030960;28;20516;-69
2021/04/29 10:43:02;;;;;;;1.20;1.07;;;15.50;93.20;;;;;;5029646;28;20486;-69
2021/04/29 10:45:35;;;;;;;1.40;1.30;;;15.70;95.20;;;;;;5031538;28;20455;-68
2021/04/29 10:48:08;;;;;;;1.23;1.10;;;16.00;92.30;;;;;;5028060;28;20489;-70
2021/04/29 10:50:43;;;;;;;2.17;1.40;;;16.20;92.50;;;;;;5032056;28;20462;-69
2021/04/29 10:53:12;;;;;;;1.20;1.00;;;16.20;91.60;;;;;;5029967;28;20454;-70
2021/04/29 10:55:43;;;;;;;1.40;1.33;;;16.40;91.70;;;;;;5032311;28;20471;-71
2021/04/29 10:58:22;;;;;;;1.80;1.50;;;16.40;90.40;;;;;;5027906;28;20450;-70
2021/04/29 11:01:12;;;;;;;1.30;1.17;;;16.30;92.10;;;;;;5032371;28;20458;-71
2021/04/29 11:03:42;;;;;;;1.57;1.27;;;16.40;91.50;;;;;;5025223;28;20489;-70
2021/04/29 11:06:14;;;;;;;1.83;1.70;;;16.50;91.60;;;;;;5030881;28;20450;-70
2021/04/29 11:08:44;;;;;;;1.67;1.20;;;16.70;90.70;;;;;;5028229;28;20552;-70
2021/04/29 11:11:25;;;;;;;1.90;1.40;;;16.80;90.10;;;;;;5031014;28;20469;-70
2021/04/29 11:14:06;;;;;;;2.43;1.80;;;16.80;89.20;;;;;;5028167;28;20493;-71
2021/04/29 11:16:49;;;;;;;1.40;1.37;;;16.70;88.10;;;;;;5031004;28;20925;-69
2021/04/29 11:19:40;;;;;;;1.30;1.10;;;16.60;91.20;;;;;;5028564;28;20480;-70
2021/04/29 11:22:08;;;;;;;2.37;1.50;;;16.60;90.40;;;;;;5031427;28;20520;-70
2021/04/29 11:24:38;;;;;;;1.90;1.30;;;16.50;90.50;;;;;;5027935;28;20498;-69
2021/04/29 11:27:05;;;;;;;1.67;1.50;;;16.60;88.80;;;;;;5030641;28;20451;-68
2021/04/29 11:29:37;;;;;;;1.30;1.23;;;16.70;89.40;;;;;;5027984;28;20494;-70
2021/04/29 11:32:04;;;;;;;1.50;1.30;;;16.80;90.10;;;;;;5030558;28;20505;-69
2021/04/29 11:34:46;;;;;;;1.70;1.50;;;17.00;89.00;;;;;;5028002;28;20501;-70
2021/04/29 11:37:15;;;;;;;1.57;1.10;;;17.20;88.20;;;;;;5031659;28;20458;-71
2021/04/29 11:39:43;;;;;;;1.53;1.47;;;17.30;89.30;;;;;;5031446;28;20458;-71
2021/04/29 11:42:25;;;;;;;2.03;1.50;;;16.80;88.00;;;;;;5034334;28;20454;-70
2021/04/29 11:44:52;;;;;;;1.40;1.20;;;16.50;87.20;;;;;;5031585;28;21085;-71
2021/04/29 11:47:19;;;;;;;1.40;1.23;;;16.20;88.60;;;;;;5033578;28;20500;-71
2021/04/29 11:49:47;;;;;;;1.50;1.20;;;16.00;88.20;;;;;;5032273;28;20466;-73
2021/04/29 11:52:14;;;;;;;1.30;1.20;;;16.30;88.60;;;;;;5034333;28;20964;-70
2021/04/29 11:54:48;;;;;;;1.20;1.13;;;16.60;87.90;;;;;;5030864;28;20950;-71
2021/04/29 11:57:16;;;;;;;1.53;1.40;;;16.60;86.40;;;;;;5034202;28;20461;-72
2021/04/29 11:59:49;;;;;;;1.20;1.10;;;16.40;88.30;;;;;;5031367;28;20461;-71
2021/04/29 12:02:16;;;;;;;2.30;1.27;;;16.20;88.00;;;;;;5033923;28;20466;-70
2021/04/29 12:04:45;;;;;;;1.60;1.60;;;15.80;88.40;;;;;;5030443;28;21018;-70
2021/04/29 12:07:13;;;;;;;1.40;1.30;;;16.00;88.90;;;;;;5033785;28;20941;-71
2021/04/29 12:09:40;;;;;;;1.40;1.30;;;16.00;87.10;;;;;;5030842;28;20455;-70
2021/04/29 12:12:15;;;;;;;1.40;1.10;;;15.90;87.90;;;;;;5033292;28;20965;-70
2021/04/29 12:14:54;;;;;;;2.43;1.10;;;16.10;87.20;;;;;;5029525;28;20532;-70
2021/04/29 12:17:22;;;;;;;1.50;1.30;;;16.30;84.80;;;;;;5033493;28;20454;-70
2021/04/29 12:19:51;;;;;;;1.60;1.27;;;16.40;85.00;;;;;;5031054;28;20466;-69
2021/04/29 12:22:20;;;;;;;1.50;1.20;;;16.10;85.40;;;;;;5033331;28;20796;-70
2021/04/29 12:24:47;;;;;;;4.60;1.50;;;16.00;86.00;;;;;;5030944;28;20965;-70
2021/04/29 12:27:18;;;;;;;1.80;1.33;;;15.70;85.60;;;;;;5033367;28;20466;-69
2021/04/29 12:29:46;;;;;;;1.20;1.00;;;15.30;87.60;;;;;;5030542;28;20909;-71
2021/04/29 12:32:14;;;;;;;1.77;1.20;;;15.30;88.20;;;;;;5032307;28;20976;-70
2021/04/29 12:34:46;;;;;;;1.30;1.00;;;15.30;91.50;;;;;;5030535;28;20451;-68
2021/04/29 12:37:14;;;;;;;2.03;1.37;;;15.30;93.10;;;;;;5033167;28;21099;-68
2021/04/29 12:39:44;;;;;;;1.80;1.20;;;15.30;92.60;;;;;;5030176;28;20458;-69
2021/04/29 12:42:15;;;;;;;1.30;1.23;;;15.40;91.50;;;;;;5033137;28;20454;-69
2021/04/29 12:44:44;;;;;;;1.80;1.17;;;15.30;91.00;;;;;;5029760;28;20493;-69
2021/04/29 12:47:12;;;;;;;2.00;1.00;;;15.10;91.20;;;;;;5032894;28;20857;-68
2021/04/29 12:49:38;;;;;;;1.20;1.10;;;14.80;92.00;;;;;;5028599;28;20517;-69
2021/04/29 12:52:09;;;;;;;1.47;1.20;;;14.70;91.80;;;;;;5032013;28;20461;-70
2021/04/29 12:54:36;;;;;;;1.20;1.00;;;14.70;91.50;;;;;;5029869;28;20455;-69